Terminal Aerodrome Forecast
Issued by NWS North Platte, NE

Home | Current Version | Previous Version | Text Only | Print | Product List | Glossary Off
Versions: 1 2 3 4 5 6 7 8 9 10 11 12 13 14 15 16 17 18 19 20 21 22 23 24 25 26 27 28 29 30 31 32

000
FTUS43 KLBF 151300 AAC
TAFVTN
TAF AMD
KVTN 151329Z 1513/1612 33018G25KT 3/4SM -SN BR VV014
     FM151600 34024G30KT 1SM -SN BR OVC015
     FM151800 34024G30KT 5SM -SN OVC015
     FM160000 34014G21KT P6SM OVC015=

USA.gov is the U.S. government's official web portal to all federal, state and local government web resources and services.